Time;durP1;ratioP1;P1;durP2;ratioP2;P2;SDS_P1;SDS_P2;PMS_P1;PMS_P2;Temp;Humidity;BMP_temperature;BMP_pressure;BME280_temperature;BME280_humidity;BME280_pressure;Samples;Min_cycle;Max_cycle;Signal;HPM_P1;HPM_P2
2023/01/05 00:01:56;;;;;;;22.60;11.35;;;6.00;94.30;;;;;;1890573;76;21830;-57
2023/01/05 00:04:25;;;;;;;18.70;10.32;;;5.90;94.40;;;;;;1890524;76;21146;-56
2023/01/05 00:06:55;;;;;;;17.07;9.70;;;5.80;94.60;;;;;;1890674;76;21187;-56
2023/01/05 00:09:24;;;;;;;20.00;11.70;;;5.80;94.70;;;;;;1890545;76;21374;-57
2023/01/05 00:23:04;;;;;;;17.27;9.63;;;6.00;94.90;;;;;;1890596;74;21170;-57
2023/01/05 00:25:35;;;;;;;15.72;9.08;;;6.00;95.20;;;;;;1890654;76;21240;-57
2023/01/05 00:28:04;;;;;;;20.35;10.85;;;6.00;94.90;;;;;;1890530;76;21189;-57
2023/01/05 00:30:39;;;;;;;15.90;10.15;;;6.00;95.00;;;;;;1890507;76;21186;-57
2023/01/05 00:33:10;;;;;;;16.73;9.38;;;6.00;94.20;;;;;;1890744;76;21041;-57
2023/01/05 00:35:39;;;;;;;15.32;9.33;;;6.00;94.40;;;;;;1890555;76;21114;-56
2023/01/05 00:38:09;;;;;;;15.13;9.00;;;5.90;94.60;;;;;;1890540;76;21142;-56
2023/01/05 00:40:40;;;;;;;16.87;9.90;;;5.90;94.90;;;;;;1890777;76;21203;-57
2023/01/05 00:43:09;;;;;;;16.12;9.30;;;6.00;95.00;;;;;;1890625;76;21226;-57
2023/01/05 00:45:39;;;;;;;17.52;9.65;;;6.00;95.00;;;;;;1890742;76;21347;-57
2023/01/05 00:48:08;;;;;;;17.12;9.50;;;6.00;94.90;;;;;;1890671;76;21109;-57
2023/01/05 00:50:37;;;;;;;18.23;8.65;;;6.10;95.00;;;;;;1890578;76;21054;-56
2023/01/05 00:53:06;;;;;;;17.07;9.95;;;6.10;94.90;;;;;;1890567;76;21153;-57
2023/01/05 00:55:35;;;;;;;15.90;9.25;;;6.20;94.90;;;;;;1890493;76;21093;-57
2023/01/05 00:58:04;;;;;;;19.27;9.63;;;6.20;94.90;;;;;;1890572;76;21081;-57
2023/01/05 01:00:33;;;;;;;17.62;9.83;;;6.20;95.00;;;;;;1890624;76;21041;-56
2023/01/05 01:03:02;;;;;;;16.50;10.40;;;6.30;94.90;;;;;;1890682;76;21060;-57
2023/01/05 01:05:32;;;;;;;18.55;9.83;;;6.30;94.90;;;;;;1890523;75;21235;-56
2023/01/05 01:08:01;;;;;;;16.50;10.28;;;6.30;94.90;;;;;;1890527;76;21207;-56
2023/01/05 01:10:30;;;;;;;21.52;10.82;;;6.30;94.80;;;;;;1890701;76;21156;-56
2023/01/05 01:12:59;;;;;;;16.30;9.70;;;6.30;94.90;;;;;;1890572;76;21097;-56
2023/01/05 01:15:28;;;;;;;16.82;9.88;;;6.30;94.90;;;;;;1890620;76;21166;-56
2023/01/05 01:17:58;;;;;;;15.78;8.08;;;6.30;94.80;;;;;;1890447;76;21402;-57
2023/01/05 01:20:27;;;;;;;17.17;10.15;;;6.20;94.70;;;;;;1890620;76;21349;-56
2023/01/05 01:22:59;;;;;;;16.32;10.15;;;6.20;94.80;;;;;;1890638;76;21207;-55
2023/01/05 01:25:27;;;;;;;13.22;9.60;;;6.10;94.80;;;;;;1890590;76;21175;-57
2023/01/05 01:27:56;;;;;;;14.85;9.35;;;6.10;94.80;;;;;;1890511;76;21231;-57
2023/01/05 01:30:26;;;;;;;16.27;10.35;;;6.00;94.80;;;;;;1890507;76;21189;-57
2023/01/05 01:32:55;;;;;;;18.37;10.48;;;6.00;94.70;;;;;;1890632;76;21048;-56
2023/01/05 01:35:24;;;;;;;22.50;11.22;;;6.00;94.80;;;;;;1890498;76;21195;-56
2023/01/05 01:37:53;;;;;;;17.73;10.45;;;5.90;94.90;;;;;;1890658;76;21335;-57
2023/01/05 01:40:23;;;;;;;19.62;10.20;;;5.90;94.90;;;;;;1890584;76;21233;-56
2023/01/05 01:42:52;;;;;;;15.43;10.25;;;5.90;94.90;;;;;;1890587;76;21215;-56
2023/01/05 01:45:24;;;;;;;17.65;10.20;;;5.90;94.90;;;;;;1890650;76;21276;-56
2023/01/05 01:47:58;;;;;;;16.17;9.80;;;5.90;94.90;;;;;;1890641;76;21068;-57
2023/01/05 01:50:33;;;;;;;15.43;9.40;;;5.90;94.80;;;;;;1890538;76;21269;-57
2023/01/05 01:53:19;;;;;;;;;;;5.80;94.90;;;;;;1893354;76;21115;-56
2023/01/05 01:55:47;;;;;;;;;;;5.80;94.80;;;;;;1893314;76;20941;-57
2023/01/05 01:58:18;;;;;;;15.18;8.90;;;5.70;94.70;;;;;;1890619;76;21234;-54
2023/01/05 02:00:47;;;;;;;14.90;8.75;;;5.60;94.70;;;;;;1890567;76;21397;-55
2023/01/05 02:03:17;;;;;;;17.87;9.20;;;5.50;94.80;;;;;;1890522;76;21170;-56
2023/01/05 02:05:46;;;;;;;15.05;8.95;;;5.50;94.90;;;;;;1890488;76;21178;-56
2023/01/05 02:08:24;;;;;;;12.98;8.93;;;5.50;94.80;;;;;;1890546;76;21143;-57
2023/01/05 02:10:59;;;;;;;15.28;8.33;;;5.50;94.80;;;;;;1890625;76;21021;-56
2023/01/05 02:13:46;;;;;;;11.78;8.48;;;5.50;94.90;;;;;;1890584;76;21122;-56
2023/01/05 02:16:39;;;;;;;15.45;8.63;;;5.50;94.80;;;;;;1889566;76;21672;-55
2023/01/05 02:19:21;;;;;;;12.63;7.35;;;5.40;94.70;;;;;;1890436;76;21147;-56
2023/01/05 02:22:12;;;;;;;16.70;9.80;;;5.40;94.60;;;;;;1890521;76;21259;-56
2023/01/05 02:25:09;;;;;;;14.65;8.80;;;5.30;94.60;;;;;;1889268;76;21110;-56
2023/01/05 02:27:50;;;;;;;12.15;7.37;;;5.20;94.60;;;;;;1890548;76;21211;-57
2023/01/05 02:30:58;;;;;;;12.65;7.78;;;5.20;94.80;;;;;;1889966;76;21134;-56
2023/01/05 02:33:34;;;;;;;14.73;7.83;;;5.20;94.80;;;;;;1871492;77;21055;-56
2023/01/05 02:36:18;;;;;;;12.55;6.92;;;5.10;94.70;;;;;;1871295;77;21092;-56
2023/01/05 02:39:02;;;;;;;16.37;7.75;;;5.10;94.80;;;;;;1869533;77;21261;-56
2023/01/05 02:41:43;;;;;;;11.33;6.72;;;5.10;94.70;;;;;;1871599;77;21215;-56
2023/01/05 02:44:17;;;;;;;9.60;6.87;;;5.10;94.70;;;;;;1871708;77;21172;-56
2023/01/05 02:46:46;;;;;;;11.88;6.85;;;5.10;94.90;;;;;;1871690;77;21059;-57
2023/01/05 02:49:17;;;;;;;8.78;6.65;;;5.10;94.80;;;;;;1871716;76;21113;-56
2023/01/05 02:51:49;;;;;;;11.40;6.97;;;5.10;94.60;;;;;;1871658;77;21223;-56
2023/01/05 02:54:27;;;;;;;11.38;7.28;;;5.00;94.60;;;;;;1871615;77;21662;-57
2023/01/05 02:57:17;;;;;;;16.50;8.30;;;5.00;94.70;;;;;;1871659;77;21124;-56
2023/01/05 02:59:52;;;;;;;17.30;8.10;;;5.00;94.70;;;;;;1870621;77;21140;-57
2023/01/05 03:02:26;;;;;;;14.13;7.17;;;5.00;94.70;;;;;;1871602;77;21115;-57
2023/01/05 03:05:05;;;;;;;15.03;7.95;;;4.90;94.80;;;;;;1871620;77;21179;-57
2023/01/05 03:07:37;;;;;;;12.15;7.33;;;4.90;94.80;;;;;;1870990;77;21792;-57
2023/01/05 03:15:48;;;;;;;15.93;7.62;;;4.80;94.10;;;;;;1871668;77;21214;-57
2023/01/05 03:18:19;;;;;;;17.25;7.17;;;4.70;94.60;;;;;;1871698;77;21490;-56
2023/01/05 03:20:53;;;;;;;12.37;7.47;;;4.70;94.70;;;;;;1871497;75;21111;-57
2023/01/05 03:37:35;;;;;;;12.70;8.33;;;4.70;94.80;;;;;;1890641;76;21256;-57
2023/01/05 03:40:07;;;;;;;12.00;7.87;;;4.70;94.80;;;;;;1890275;76;21655;-56
2023/01/05 03:42:37;;;;;;;14.45;8.33;;;4.70;94.60;;;;;;1888351;76;21630;-55
2023/01/05 03:45:08;;;;;;;16.45;8.90;;;4.70;94.70;;;;;;1890716;76;21285;-56
2023/01/05 03:47:38;;;;;;;13.25;7.60;;;4.60;94.70;;;;;;1890622;76;21118;-56
2023/01/05 03:50:09;;;;;;;14.85;9.58;;;4.60;94.80;;;;;;1890666;76;21207;-56
2023/01/05 03:52:38;;;;;;;17.42;9.68;;;4.60;94.90;;;;;;1890654;76;21081;-56
2023/01/05 03:55:09;;;;;;;11.97;8.35;;;4.70;94.80;;;;;;1890684;76;21175;-56
2023/01/05 03:57:38;;;;;;;16.05;8.58;;;4.70;94.80;;;;;;1890572;76;21179;-56
2023/01/05 04:00:08;;;;;;;13.60;9.80;;;4.70;94.80;;;;;;1890752;76;21138;-56
2023/01/05 04:02:39;;;;;;;12.98;8.30;;;4.60;94.70;;;;;;1890619;76;21056;-55
2023/01/05 04:05:09;;;;;;;12.75;7.40;;;4.60;94.70;;;;;;1890747;76;21230;-56
2023/01/05 04:07:39;;;;;;;15.38;7.95;;;4.60;94.70;;;;;;1890606;76;21086;-57
2023/01/05 04:10:10;;;;;;;15.35;9.13;;;4.60;94.70;;;;;;1890747;76;21267;-56
2023/01/05 04:12:39;;;;;;;17.35;9.68;;;4.60;94.80;;;;;;1890615;76;21085;-56
2023/01/05 04:15:09;;;;;;;16.62;9.18;;;4.60;94.80;;;;;;1890525;76;21231;-56
2023/01/05 04:17:39;;;;;;;16.85;9.63;;;4.50;94.50;;;;;;1890628;76;21021;-56
2023/01/05 04:20:11;;;;;;;17.20;9.15;;;4.50;94.70;;;;;;1890756;76;21654;-56
2023/01/05 04:22:40;;;;;;;22.35;10.23;;;4.50;94.70;;;;;;1890698;76;21216;-57
2023/01/05 04:25:10;;;;;;;12.18;7.85;;;4.50;94.70;;;;;;1890592;76;21142;-56
2023/01/05 04:27:40;;;;;;;14.18;9.28;;;4.50;94.70;;;;;;1890540;76;21204;-56
2023/01/05 04:30:10;;;;;;;13.00;9.60;;;4.60;94.80;;;;;;1890671;76;21212;-56
2023/01/05 04:32:39;;;;;;;14.05;9.08;;;4.60;94.80;;;;;;1881055;76;21241;-57
2023/01/05 04:35:10;;;;;;;23.90;11.15;;;4.50;94.70;;;;;;1871479;77;21308;-56
2023/01/05 04:37:40;;;;;;;20.55;12.68;;;4.50;94.70;;;;;;1871650;77;21047;-55
2023/01/05 04:40:10;;;;;;;20.62;11.83;;;4.50;94.60;;;;;;1871661;77;21230;-55
2023/01/05 04:42:43;;;;;;;35.38;15.63;;;4.50;94.70;;;;;;1871642;76;21678;-56
2023/01/05 04:45:13;;;;;;;18.85;11.20;;;4.50;94.80;;;;;;1871559;77;21591;-56
2023/01/05 04:47:42;;;;;;;20.82;9.95;;;4.50;94.70;;;;;;1871556;77;21202;-57
2023/01/05 04:50:11;;;;;;;12.18;8.55;;;4.50;94.70;;;;;;1871657;77;21206;-56
2023/01/05 04:52:40;;;;;;;13.80;8.55;;;4.40;94.30;;;;;;1871530;77;21260;-56
2023/01/05 04:55:10;;;;;;;16.12;9.55;;;4.40;94.60;;;;;;1871524;77;21204;-56
2023/01/05 04:57:40;;;;;;;12.63;8.20;;;4.40;94.60;;;;;;1871540;77;21091;-55
2023/01/05 05:00:10;;;;;;;11.45;8.63;;;4.30;94.40;;;;;;1871661;77;21143;-57
2023/01/05 05:02:40;;;;;;;15.13;9.70;;;4.30;94.60;;;;;;1871493;77;21375;-56
2023/01/05 05:05:11;;;;;;;12.50;7.95;;;4.30;94.70;;;;;;1871631;77;21076;-56
2023/01/05 05:07:40;;;;;;;16.77;9.55;;;4.30;94.70;;;;;;1871486;77;21634;-56
2023/01/05 05:10:10;;;;;;;14.85;9.48;;;4.30;94.30;;;;;;1871665;77;21028;-56
2023/01/05 05:12:40;;;;;;;15.95;9.38;;;4.20;94.40;;;;;;1871535;77;21088;-56
2023/01/05 05:15:11;;;;;;;15.48;9.40;;;4.20;94.60;;;;;;1871582;77;21228;-56
2023/01/05 05:17:41;;;;;;;24.45;12.82;;;4.20;94.70;;;;;;1871335;77;21183;-55
2023/01/05 05:20:12;;;;;;;22.42;10.60;;;4.20;94.80;;;;;;1871446;77;21107;-56
2023/01/05 05:22:41;;;;;;;20.15;9.33;;;4.30;94.80;;;;;;1871578;77;21192;-55
2023/01/05 05:25:12;;;;;;;19.45;9.55;;;4.30;94.70;;;;;;1871509;77;21678;-56
2023/01/05 05:27:43;;;;;;;14.68;7.60;;;4.30;94.90;;;;;;1871415;76;21167;-56
2023/01/05 05:30:12;;;;;;;16.25;9.70;;;4.40;94.90;;;;;;1871488;77;21170;-56
2023/01/05 05:32:41;;;;;;;21.75;9.93;;;4.50;94.90;;;;;;1876626;76;21206;-55
2023/01/05 05:35:10;;;;;;;15.48;9.28;;;4.50;94.80;;;;;;1890460;76;21109;-56
2023/01/05 05:37:39;;;;;;;19.90;8.90;;;4.60;94.50;;;;;;1890386;76;21057;-56
2023/01/05 05:40:09;;;;;;;16.77;9.10;;;4.50;94.60;;;;;;1890552;76;21235;-56
2023/01/05 05:42:38;;;;;;;15.72;8.63;;;4.60;94.70;;;;;;1890405;75;21086;-56
2023/01/05 05:45:08;;;;;;;15.03;8.15;;;4.60;94.60;;;;;;1890547;76;21208;-56
2023/01/05 05:47:37;;;;;;;16.05;8.83;;;4.60;94.70;;;;;;1890557;76;21062;-57
2023/01/05 05:50:07;;;;;;;15.35;8.88;;;4.70;94.80;;;;;;1890513;74;21276;-55
2023/01/05 05:52:36;;;;;;;16.93;8.20;;;4.70;94.80;;;;;;1890520;76;21097;-56
2023/01/05 05:55:08;;;;;;;23.55;8.45;;;4.70;94.30;;;;;;1890501;75;21232;-56
2023/01/05 05:57:38;;;;;;;11.55;7.05;;;4.70;94.60;;;;;;1890495;76;21056;-55
2023/01/05 06:00:08;;;;;;;21.85;9.08;;;4.70;94.60;;;;;;1890543;75;21248;-57
2023/01/05 06:02:43;;;;;;;16.48;7.80;;;4.80;94.70;;;;;;1890557;76;21162;-56
2023/01/05 06:05:12;;;;;;;13.05;8.45;;;4.80;94.60;;;;;;1890480;76;21086;-57
2023/01/05 06:07:41;;;;;;;14.58;7.95;;;4.80;93.90;;;;;;1890452;76;21037;-56
2023/01/05 06:10:10;;;;;;;13.83;7.95;;;4.70;93.80;;;;;;1890514;76;21459;-57
2023/01/05 06:12:39;;;;;;;8.43;6.10;;;4.50;93.50;;;;;;1890549;76;21082;-57
2023/01/05 06:15:09;;;;;;;15.20;8.43;;;4.40;93.60;;;;;;1890688;76;21145;-57
2023/01/05 06:17:38;;;;;;;16.27;9.65;;;4.30;94.10;;;;;;1890581;76;21221;-57
2023/01/05 06:20:08;;;;;;;12.33;8.48;;;4.30;94.50;;;;;;1890603;76;21122;-57
2023/01/05 06:22:38;;;;;;;11.95;8.28;;;4.40;94.60;;;;;;1890615;76;21064;-57
2023/01/05 06:25:07;;;;;;;16.32;7.58;;;4.50;94.10;;;;;;1890661;76;21033;-57
2023/01/05 06:27:36;;;;;;;11.57;8.35;;;4.60;94.50;;;;;;1890645;76;21021;-57
2023/01/05 06:30:06;;;;;;;13.55;8.90;;;4.60;94.30;;;;;;1890616;76;21090;-57
2023/01/05 06:32:35;;;;;;;15.18;8.85;;;4.60;94.20;;;;;;1890635;76;21125;-57
2023/01/05 06:35:05;;;;;;;17.70;8.75;;;4.70;93.80;;;;;;1871992;76;21160;-56
2023/01/05 06:37:34;;;;;;;13.03;9.73;;;4.60;94.10;;;;;;1871626;77;21107;-57
2023/01/05 06:40:03;;;;;;;15.40;9.65;;;4.60;93.60;;;;;;1871709;77;21047;-56
2023/01/05 06:42:33;;;;;;;12.60;7.37;;;4.60;93.60;;;;;;1871583;77;20996;-57
2023/01/05 06:45:02;;;;;;;12.90;6.55;;;4.50;93.30;;;;;;1871581;77;21146;-57
2023/01/05 06:47:31;;;;;;;12.20;7.95;;;4.50;93.30;;;;;;1871561;77;21020;-56
2023/01/05 06:50:00;;;;;;;10.10;6.95;;;4.40;93.60;;;;;;1871619;77;21152;-56
2023/01/05 06:52:29;;;;;;;8.45;6.55;;;4.40;93.80;;;;;;1871715;77;21091;-57
2023/01/05 06:54:58;;;;;;;10.00;5.97;;;4.40;93.40;;;;;;1871669;77;21035;-56
2023/01/05 06:57:27;;;;;;;10.48;6.75;;;4.50;93.80;;;;;;1871673;77;21155;-56
2023/01/05 06:59:55;;;;;;;10.50;6.80;;;4.50;94.20;;;;;;1871577;77;21169;-57
2023/01/05 07:02:25;;;;;;;10.70;7.65;;;4.60;94.20;;;;;;1871568;77;21020;-56
2023/01/05 07:04:54;;;;;;;14.03;6.97;;;4.80;94.10;;;;;;1871550;77;21044;-56
2023/01/05 07:07:23;;;;;;;17.07;6.92;;;4.90;94.10;;;;;;1871512;77;21048;-57
2023/01/05 07:09:52;;;;;;;9.73;6.65;;;5.00;94.10;;;;;;1871590;77;21072;-56
2023/01/05 07:12:21;;;;;;;9.78;6.75;;;5.10;94.00;;;;;;1871527;77;21439;-57
2023/01/05 07:14:50;;;;;;;10.58;7.58;;;5.20;94.10;;;;;;1871476;77;21035;-56
2023/01/05 07:17:19;;;;;;;9.35;7.22;;;5.30;94.10;;;;;;1871492;77;21035;-56
2023/01/05 07:19:48;;;;;;;19.27;10.13;;;5.40;94.20;;;;;;1871536;77;21105;-57
2023/01/05 07:22:17;;;;;;;12.23;8.03;;;5.50;93.60;;;;;;1871543;77;21145;-57
2023/01/05 07:24:46;;;;;;;19.92;9.15;;;5.50;93.10;;;;;;1871489;77;21145;-57
2023/01/05 07:27:15;;;;;;;25.43;12.93;;;5.50;93.30;;;;;;1871634;77;20991;-56
2023/01/05 07:29:44;;;;;;;13.70;9.73;;;5.40;93.40;;;;;;1871584;76;20993;-56
2023/01/05 07:32:13;;;;;;;13.85;9.50;;;5.50;93.50;;;;;;1871520;77;20992;-57
2023/01/05 07:34:42;;;;;;;9.65;7.47;;;5.50;93.70;;;;;;1882152;75;21068;-57
2023/01/05 07:37:11;;;;;;;15.68;8.63;;;5.60;93.70;;;;;;1890571;76;21044;-57
2023/01/05 07:39:41;;;;;;;19.60;10.55;;;5.70;93.40;;;;;;1890582;76;21052;-57
2023/01/05 07:42:10;;;;;;;21.15;10.93;;;5.80;93.70;;;;;;1890530;76;21106;-57
2023/01/05 07:44:39;;;;;;;12.15;9.03;;;5.90;93.10;;;;;;1890619;76;21066;-57
2023/01/05 07:47:08;;;;;;;14.75;7.85;;;6.00;93.50;;;;;;1890645;76;21021;-57
2023/01/05 07:49:37;;;;;;;13.58;8.48;;;6.10;93.50;;;;;;1890624;76;21154;-57
2023/01/05 07:52:06;;;;;;;11.40;7.00;;;6.20;93.40;;;;;;1890670;76;21092;-57
2023/01/05 07:54:36;;;;;;;11.63;7.15;;;6.30;92.90;;;;;;1890388;76;21052;-57
2023/01/05 07:57:05;;;;;;;9.95;7.03;;;6.40;92.80;;;;;;1890593;76;21048;-57
2023/01/05 07:59:34;;;;;;;11.33;7.37;;;6.40;92.50;;;;;;1890668;76;20993;-57
2023/01/05 08:02:03;;;;;;;10.23;6.45;;;6.50;92.90;;;;;;1890546;76;21032;-57
2023/01/05 08:04:32;;;;;;;5.17;3.92;;;6.60;92.70;;;;;;1890571;76;21025;-57
2023/01/05 08:07:01;;;;;;;6.15;3.67;;;6.70;91.60;;;;;;1890536;76;21036;-57
2023/01/05 08:12:18;;;;;;;4.30;3.90;;;6.80;90.80;;;;;;1890611;75;21041;-57
2023/01/05 08:14:47;;;;;;;6.35;4.12;;;6.80;90.80;;;;;;1890499;76;21076;-57
2023/01/05 08:17:16;;;;;;;8.10;4.17;;;6.80;91.20;;;;;;1890563;76;21068;-57
2023/01/05 08:19:45;;;;;;;8.50;4.42;;;6.90;91.50;;;;;;1890545;74;21095;-57
2023/01/05 08:22:15;;;;;;;6.95;3.83;;;6.90;90.40;;;;;;1890514;76;21005;-57
2023/01/05 08:24:44;;;;;;;4.72;3.67;;;6.90;90.60;;;;;;1890568;76;21021;-57
2023/01/05 08:27:13;;;;;;;6.40;4.85;;;6.90;90.50;;;;;;1890455;76;21040;-55
2023/01/05 08:29:42;;;;;;;5.97;4.12;;;6.90;90.50;;;;;;1890621;76;21107;-57
2023/01/05 08:32:11;;;;;;;6.33;4.05;;;6.90;90.30;;;;;;1890623;76;21033;-57
2023/01/05 08:34:40;;;;;;;5.55;3.65;;;7.00;90.60;;;;;;1890399;76;21507;-57
2023/01/05 08:37:10;;;;;;;5.90;4.05;;;7.00;90.30;;;;;;1890398;75;21065;-57
2023/01/05 08:39:39;;;;;;;8.98;4.30;;;7.10;89.90;;;;;;1890447;76;21119;-57
2023/01/05 08:42:08;;;;;;;6.50;3.45;;;7.10;90.40;;;;;;1890425;75;21001;-56
2023/01/05 08:44:37;;;;;;;4.35;3.67;;;7.10;89.10;;;;;;1890448;76;21088;-57
2023/01/05 08:47:07;;;;;;;7.20;4.85;;;7.10;90.10;;;;;;1890533;75;21177;-56
2023/01/05 08:49:36;;;;;;;8.68;5.42;;;7.10;90.50;;;;;;1890570;76;21534;-57
2023/01/05 08:52:07;;;;;;;6.85;4.80;;;7.10;90.60;;;;;;1890568;76;21044;-56
2023/01/05 08:54:36;;;;;;;5.60;4.35;;;7.20;90.30;;;;;;1890514;75;21526;-57
2023/01/05 08:57:05;;;;;;;5.53;3.58;;;7.20;90.20;;;;;;1890625;76;21052;-57
2023/01/05 08:59:34;;;;;;;5.42;4.22;;;7.20;90.20;;;;;;1890521;76;21021;-56
2023/01/05 09:02:03;;;;;;;11.03;5.60;;;7.30;89.60;;;;;;1890500;76;21008;-57
2023/01/05 09:04:32;;;;;;;14.13;5.28;;;7.40;90.20;;;;;;1890537;76;21111;-57
2023/01/05 09:07:02;;;;;;;14.15;6.72;;;7.50;90.10;;;;;;1890505;76;21021;-56
2023/01/05 09:09:33;;;;;;;8.43;4.25;;;7.50;90.00;;;;;;1890609;76;21033;-57
2023/01/05 09:12:01;;;;;;;12.85;5.35;;;7.60;89.60;;;;;;1890497;76;21095;-57
2023/01/05 09:14:31;;;;;;;8.80;5.42;;;7.70;89.50;;;;;;1890606;76;21045;-57
2023/01/05 09:17:00;;;;;;;6.42;4.40;;;7.80;89.70;;;;;;1890486;76;21099;-56
2023/01/05 09:19:29;;;;;;;7.15;3.92;;;7.80;88.10;;;;;;1890479;74;21009;-56
2023/01/05 09:21:58;;;;;;;6.15;3.58;;;7.90;89.70;;;;;;1890497;76;21488;-57
2023/01/05 09:24:28;;;;;;;5.75;3.60;;;7.90;87.00;;;;;;1890659;76;21096;-56
2023/01/05 09:26:57;;;;;;;5.37;4.05;;;7.90;88.10;;;;;;1890543;76;21146;-57
2023/01/05 09:29:26;;;;;;;4.90;3.35;;;7.90;88.00;;;;;;1890648;76;21104;-57
2023/01/05 09:31:55;;;;;;;6.17;3.55;;;7.90;87.30;;;;;;1890555;76;21024;-57
2023/01/05 09:34:25;;;;;;;6.60;3.52;;;7.90;86.60;;;;;;1890553;76;21013;-57
2023/01/05 09:36:54;;;;;;;5.12;3.67;;;7.80;87.30;;;;;;1872530;76;21063;-56
2023/01/05 09:39:24;;;;;;;7.08;5.00;;;7.80;87.50;;;;;;1871505;77;21012;-57
2023/01/05 09:42:05;;;;;;;6.22;4.55;;;7.70;88.20;;;;;;1871524;77;21036;-57
2023/01/05 09:44:42;;;;;;;7.05;4.22;;;7.70;88.30;;;;;;1871556;77;21086;-56
2023/01/05 09:47:17;;;;;;;7.97;4.42;;;7.70;88.50;;;;;;1871526;77;21023;-57
2023/01/05 09:49:48;;;;;;;9.60;4.55;;;7.80;88.70;;;;;;1871696;77;21538;-57
2023/01/05 09:52:20;;;;;;;5.97;3.72;;;7.80;88.70;;;;;;1871673;77;21496;-56
2023/01/05 09:54:49;;;;;;;5.75;3.98;;;7.80;87.90;;;;;;1871499;77;21056;-56
2023/01/05 09:57:21;;;;;;;5.80;3.80;;;7.90;88.00;;;;;;1871620;77;21007;-56
2023/01/05 09:59:56;;;;;;;5.58;3.80;;;7.90;87.60;;;;;;1871521;77;21466;-57
2023/01/05 10:02:31;;;;;;;7.78;3.67;;;8.00;86.60;;;;;;1871637;77;21016;-57
2023/01/05 10:05:03;;;;;;;10.78;4.00;;;7.90;88.00;;;;;;1871134;77;21478;-57
2023/01/05 10:07:53;;;;;;;7.53;3.70;;;8.00;88.20;;;;;;1871506;77;21027;-57
2023/01/05 10:10:24;;;;;;;10.20;4.60;;;8.00;87.80;;;;;;1871485;77;21101;-57
2023/01/05 10:13:05;;;;;;;5.22;3.62;;;8.00;88.00;;;;;;1871605;77;21559;-56
2023/01/05 10:15:40;;;;;;;6.53;4.22;;;8.00;87.30;;;;;;1871464;77;21462;-57
2023/01/05 10:18:24;;;;;;;5.97;3.67;;;8.00;87.80;;;;;;1871655;77;21036;-57
2023/01/05 10:21:01;;;;;;;6.03;3.35;;;8.10;87.20;;;;;;1871606;77;21097;-56
2023/01/05 10:23:43;;;;;;;12.43;4.20;;;8.10;86.20;;;;;;1871664;77;21023;-56
2023/01/05 10:26:23;;;;;;;18.80;10.10;;;8.20;86.80;;;;;;1871413;77;21112;-57
2023/01/05 10:29:01;;;;;;;8.53;4.30;;;8.20;87.00;;;;;;1871587;77;21051;-57
2023/01/05 10:31:48;;;;;;;6.72;3.40;;;8.30;86.50;;;;;;1870685;77;21027;-57
2023/01/05 10:34:23;;;;;;;4.08;3.02;;;8.40;86.40;;;;;;1871413;77;21073;-57
2023/01/05 10:37:07;;;;;;;8.23;4.20;;;8.40;85.70;;;;;;1885549;76;21135;-56
2023/01/05 10:40:07;;;;;;;4.50;3.37;;;8.50;85.20;;;;;;1890615;75;21017;-56
2023/01/05 10:42:42;;;;;;;4.65;3.33;;;8.50;85.50;;;;;;1890606;76;21016;-57
2023/01/05 10:45:14;;;;;;;7.40;3.15;;;8.40;85.00;;;;;;1890541;76;21526;-57
2023/01/05 10:47:44;;;;;;;7.28;3.47;;;8.40;85.10;;;;;;1889398;76;21053;-57
2023/01/05 10:50:33;;;;;;;8.98;3.87;;;8.40;84.70;;;;;;1890531;76;21025;-57
2023/01/05 10:53:10;;;;;;;5.42;3.58;;;8.50;86.20;;;;;;1890517;76;20997;-57
2023/01/05 10:56:02;;;;;;;4.40;3.75;;;8.50;86.60;;;;;;1890462;76;21027;-57
2023/01/05 10:58:41;;;;;;;7.37;3.92;;;8.50;86.00;;;;;;1890399;76;21140;-57
2023/01/05 11:01:28;;;;;;;7.65;4.05;;;8.50;86.70;;;;;;1888974;76;21402;-57
2023/01/05 11:04:09;;;;;;;5.97;3.98;;;8.50;86.50;;;;;;1890558;76;21491;-57
2023/01/05 11:06:38;;;;;;;7.20;3.72;;;8.60;86.50;;;;;;1890783;76;21076;-57
2023/01/05 11:09:22;;;;;;;7.30;4.33;;;8.60;86.40;;;;;;1890615;76;21068;-56
2023/01/05 11:11:59;;;;;;;8.95;4.22;;;8.60;86.60;;;;;;1890626;76;21560;-57
2023/01/05 11:14:31;;;;;;;2.55;2.30;;;8.60;86.20;;;;;;1890590;76;20991;-57
2023/01/05 11:17:09;;;;;;;5.65;3.70;;;8.70;85.40;;;;;;1890710;76;21056;-57
2023/01/05 11:19:44;;;;;;;8.08;3.40;;;8.60;85.50;;;;;;1890743;76;21060;-57
2023/01/05 11:22:34;;;;;;;13.78;4.25;;;8.60;86.10;;;;;;1889749;76;21053;-57
2023/01/05 11:25:24;;;;;;;9.63;3.85;;;8.60;86.10;;;;;;1890573;76;21021;-57
2023/01/05 11:28:05;;;;;;;7.70;4.30;;;8.70;85.70;;;;;;1890606;76;21044;-57
2023/01/05 11:30:35;;;;;;;2.22;2.00;;;8.70;86.00;;;;;;1876136;76;21132;-57
2023/01/05 11:33:07;;;;;;;8.45;3.75;;;8.70;85.20;;;;;;1890581;76;21033;-57
2023/01/05 11:35:38;;;;;;;3.92;2.75;;;8.70;85.80;;;;;;1889995;76;21032;-57
2023/01/05 11:38:08;;;;;;;5.62;4.10;;;8.70;85.60;;;;;;1872250;76;21052;-57
2023/01/05 11:40:37;;;;;;;5.45;3.90;;;8.70;86.20;;;;;;1869212;77;21027;-57
2023/01/05 11:43:13;;;;;;;16.10;9.63;;;8.70;86.00;;;;;;1871578;77;21451;-57
2023/01/05 11:45:48;;;;;;;6.78;4.10;;;8.70;85.60;;;;;;1871579;77;21039;-57
2023/01/05 11:48:19;;;;;;;3.27;2.98;;;8.70;86.30;;;;;;1871701;77;21024;-57
2023/01/05 11:50:50;;;;;;;5.65;3.85;;;8.60;86.00;;;;;;1871282;77;21492;-57
2023/01/05 11:53:38;;;;;;;5.15;3.47;;;8.60;86.60;;;;;;1871623;77;21008;-57
2023/01/05 11:56:21;;;;;;;4.28;2.92;;;8.60;86.50;;;;;;1871736;77;21015;-57
2023/01/05 11:58:57;;;;;;;6.37;4.10;;;8.60;85.80;;;;;;1871679;77;21077;-56
2023/01/05 12:01:47;;;;;;;7.08;3.35;;;8.60;86.60;;;;;;1871597;76;21039;-57
2023/01/05 12:04:51;;;;;;;4.30;2.95;;;8.60;86.70;;;;;;1870923;77;21020;-56
2023/01/05 12:07:34;;;;;;;8.58;5.80;;;8.60;86.60;;;;;;1871646;77;21469;-56
2023/01/05 12:10:18;;;;;;;8.38;4.25;;;8.60;86.60;;;;;;1871627;77;21051;-56
2023/01/05 12:13:09;;;;;;;7.90;4.17;;;8.60;86.90;;;;;;1871565;77;21188;-56
2023/01/05 12:15:44;;;;;;;6.10;4.10;;;8.60;86.90;;;;;;1869353;77;21059;-57
2023/01/05 12:18:25;;;;;;;5.67;3.30;;;8.60;87.10;;;;;;1871771;77;21028;-56
2023/01/05 12:21:08;;;;;;;6.87;3.80;;;8.60;87.00;;;;;;1871579;77;21474;-57
2023/01/05 12:23:58;;;;;;;6.12;3.80;;;8.70;87.50;;;;;;1870563;77;21590;-57
2023/01/05 12:26:30;;;;;;;6.25;3.47;;;8.70;86.90;;;;;;1871536;77;21101;-57
2023/01/05 12:29:08;;;;;;;6.00;2.92;;;8.70;86.90;;;;;;1870789;77;21172;-56
2023/01/05 12:31:39;;;;;;;6.80;4.20;;;8.70;87.00;;;;;;1871380;77;21044;-57
2023/01/05 12:34:23;;;;;;;4.97;3.77;;;8.70;87.30;;;;;;1870554;77;21095;-56
2023/01/05 12:37:14;;;;;;;17.35;3.75;;;8.70;87.50;;;;;;1876242;76;21065;-56
2023/01/05 12:40:07;;;;;;;5.22;3.17;;;8.80;87.70;;;;;;1890620;76;21029;-57
2023/01/05 12:43:12;;;;;;;4.47;3.40;;;8.80;87.60;;;;;;1889169;76;21048;-57
2023/01/05 12:45:49;;;;;;;8.75;4.10;;;8.80;87.60;;;;;;1889958;76;21029;-57
2023/01/05 12:48:27;;;;;;;5.50;3.70;;;8.80;87.80;;;;;;1890885;76;21052;-57
2023/01/05 12:51:04;;;;;;;7.45;3.70;;;8.70;87.80;;;;;;1890579;76;20989;-57
2023/01/05 12:53:39;;;;;;;5.20;3.40;;;8.70;87.70;;;;;;1890555;76;21067;-57
2023/01/05 12:56:14;;;;;;;7.28;3.02;;;8.70;87.70;;;;;;1890541;76;21138;-55
2023/01/05 12:59:06;;;;;;;17.17;3.52;;;8.70;87.60;;;;;;1890422;75;21451;-56
2023/01/05 13:01:38;;;;;;;7.17;3.42;;;8.70;87.60;;;;;;1890297;76;21044;-56
2023/01/05 13:04:12;;;;;;;5.53;3.85;;;8.70;87.60;;;;;;1890395;75;21172;-56
2023/01/05 13:06:44;;;;;;;7.43;3.90;;;8.70;87.80;;;;;;1890708;76;21566;-57
2023/01/05 13:09:22;;;;;;;3.92;3.42;;;8.70;87.90;;;;;;1890497;76;21260;-57
2023/01/05 13:11:57;;;;;;;10.90;4.62;;;8.70;87.90;;;;;;1890414;76;21033;-57
2023/01/05 13:14:51;;;;;;;3.35;2.55;;;8.70;88.00;;;;;;1890414;76;21087;-57
2023/01/05 13:17:26;;;;;;;5.12;3.35;;;8.70;88.50;;;;;;1890585;76;21032;-55
2023/01/05 13:19:58;;;;;;;4.12;3.67;;;8.70;88.30;;;;;;1890651;75;21108;-56
2023/01/05 13:22:30;;;;;;;6.08;3.20;;;8.70;88.20;;;;;;1889958;76;21065;-57
2023/01/05 13:25:18;;;;;;;6.33;3.55;;;8.70;88.20;;;;;;1890698;76;21542;-57
2023/01/05 13:27:48;;;;;;;7.42;3.95;;;8.70;88.10;;;;;;1890515;76;21052;-56
2023/01/05 13:30:32;;;;;;;4.00;2.67;;;8.70;88.20;;;;;;1890529;76;21013;-56
2023/01/05 13:33:23;;;;;;;5.22;3.05;;;8.70;88.20;;;;;;1890554;76;21021;-57
2023/01/05 13:35:54;;;;;;;4.58;2.87;;;8.70;88.30;;;;;;1890477;76;21475;-56
2023/01/05 13:38:42;;;;;;;6.30;4.28;;;8.70;88.40;;;;;;1890116;76;21147;-56
2023/01/05 13:41:22;;;;;;;5.92;3.70;;;8.70;88.40;;;;;;1889591;76;21486;-57
2023/01/05 13:44:23;;;;;;;6.58;4.08;;;8.70;88.50;;;;;;1890321;76;21448;-57
2023/01/05 13:47:01;;;;;;;4.45;3.40;;;8.70;88.50;;;;;;1890592;76;21029;-58
2023/01/05 13:50:03;;;;;;;6.12;4.30;;;8.70;88.50;;;;;;1890769;76;21057;-57
2023/01/05 13:52:59;;;;;;;6.50;3.35;;;8.70;88.50;;;;;;1890555;76;21126;-55
2023/01/05 13:55:29;;;;;;;5.30;3.10;;;8.80;88.70;;;;;;1890500;76;21033;-57
2023/01/05 13:58:01;;;;;;;5.12;3.37;;;8.80;88.50;;;;;;1890665;76;21137;-58